Time;durP1;ratioP1;P1;durP2;ratioP2;P2;SDS_P1;SDS_P2;PMS_P1;PMS_P2;Temp;Humidity;BMP_temperature;BMP_pressure;BME280_temperature;BME280_humidity;BME280_pressure;Samples;Min_cycle;Max_cycle;Signal;HPM_P1;HPM_P2
2022/09/21 00:01:14;;;;;;;14.30;6.63;;;;;;;7.90;100.00;100071.56;4183983;28;20716;-75
2022/09/21 00:03:41;;;;;;;14.63;7.03;;;;;;;7.91;100.00;100062.63;4178079;28;20233;-74
2022/09/21 00:06:09;;;;;;;14.27;7.03;;;;;;;7.98;100.00;100069.09;4184182;28;21696;-73
2022/09/21 00:08:36;;;;;;;16.40;7.47;;;;;;;7.99;100.00;100065.44;4179103;28;20296;-73
2022/09/21 00:11:04;;;;;;;14.23;7.07;;;;;;;7.99;100.00;100070.75;4181059;28;20244;-71
2022/09/21 00:13:32;;;;;;;12.87;6.97;;;;;;;8.03;100.00;100060.72;4189451;28;21527;-72
2022/09/21 00:15:58;;;;;;;16.27;7.37;;;;;;;8.06;100.00;100060.44;4185749;28;22789;-71
2022/09/21 00:18:25;;;;;;;16.10;7.60;;;;;;;8.12;100.00;100070.47;4181148;28;20233;-73
2022/09/21 00:20:51;;;;;;;14.07;7.00;;;;;;;8.10;100.00;100066.28;4185379;28;20427;-71
2022/09/21 00:23:19;;;;;;;11.67;6.37;;;;;;;8.07;100.00;100066.56;4186020;28;21622;-72
2022/09/21 00:25:45;;;;;;;13.57;6.97;;;;;;;8.10;100.00;100064.50;4156948;28;21558;-72
2022/09/21 00:28:12;;;;;;;17.70;6.80;;;;;;;8.09;100.00;100070.75;4173626;28;21655;-72
2022/09/21 00:30:38;;;;;;;14.73;7.20;;;;;;;8.14;100.00;100067.69;4182460;28;21196;-73
2022/09/21 00:33:05;;;;;;;14.17;7.13;;;;;;;8.14;100.00;100067.69;4189244;28;20229;-72
2022/09/21 00:35:32;;;;;;;14.40;7.43;;;;;;;8.14;100.00;100065.88;4183350;28;26381;-72
2022/09/21 00:38:02;;;;;;;15.37;7.57;;;;;;;8.15;100.00;100064.06;4181113;28;20338;-72
2022/09/21 00:40:29;;;;;;;16.00;7.70;;;;;;;8.24;100.00;100071.16;4172845;28;20813;-73
2022/09/21 00:43:13;;;;;;;19.03;8.30;;;;;;;8.20;100.00;100067.16;4184453;28;21080;-72
2022/09/21 00:45:40;;;;;;;17.23;7.73;;;;;;;8.21;100.00;100069.63;4181338;28;20911;-73
2022/09/21 00:48:06;;;;;;;15.13;8.00;;;;;;;8.29;100.00;100071.63;4172955;28;21207;-70
2022/09/21 00:50:34;;;;;;;18.07;8.67;;;;;;;8.30;100.00;100069.78;4182918;28;21266;-75
2022/09/21 00:53:03;;;;;;;18.80;8.67;;;;;;;8.31;100.00;100066.16;4184170;28;20250;-71
2022/09/21 00:55:40;;;;;;;18.27;8.33;;;;;;;8.33;100.00;100072.16;4163995;28;20922;-72
2022/09/21 00:58:14;;;;;;;17.07;9.07;;;;;;;8.34;100.00;100069.38;4181993;28;20257;-72
2022/09/21 01:00:42;;;;;;;17.60;9.60;;;;;;;8.38;100.00;100072.56;4185117;28;20581;-68
2022/09/21 01:03:09;;;;;;;17.17;9.00;;;;;;;8.35;100.00;100072.84;4189485;28;21998;-71
2022/09/21 01:05:36;;;;;;;19.97;10.50;;;;;;;8.33;100.00;100072.16;4165391;28;20407;-69
2022/09/21 01:08:05;;;;;;;20.00;10.67;;;;;;;8.43;100.00;100073.03;4178491;28;20233;-68
2022/09/21 01:11:07;;;;;;;17.40;10.27;;;;;;;8.41;100.00;100064.38;4182054;28;22313;-69
2022/09/21 01:13:45;;;;;;;21.23;11.30;;;;;;;8.43;100.00;100073.88;4194845;28;20318;-73
2022/09/21 01:16:43;;;;;;;21.30;10.83;;;;;;;8.41;100.00;100075.81;4183428;28;20858;-70
2022/09/21 01:19:12;;;;;;;20.00;11.30;;;;;;;8.42;100.00;100072.19;4156908;28;21643;-73
2022/09/21 01:22:00;;;;;;;23.97;12.30;;;;;;;8.48;100.00;100072.63;4184533;28;20243;-70
2022/09/21 01:24:47;;;;;;;21.43;12.70;;;;;;;8.47;100.00;100073.59;4178732;28;25355;-70
2022/09/21 01:27:50;;;;;;;25.57;12.07;;;;;;;8.47;100.00;100071.75;4176032;28;20637;-69
2022/09/21 01:30:19;;;;;;;19.47;11.93;;;;;;;8.52;100.00;100081.94;4171356;28;21982;-71
2022/09/21 01:33:06;;;;;;;21.50;11.67;;;;;;;8.50;100.00;100095.38;4159281;28;22152;-69
2022/09/21 01:35:46;;;;;;;21.43;12.83;;;;;;;8.51;100.00;100093.53;4182290;28;20252;-68
2022/09/21 01:38:18;;;;;;;22.63;11.77;;;;;;;8.50;100.00;100095.38;4167704;28;20244;-72
2022/09/21 01:40:51;;;;;;;20.60;12.90;;;;;;;8.56;100.00;100099.25;4178770;28;20238;-70
2022/09/21 01:43:24;;;;;;;25.43;13.33;;;;;;;8.63;100.00;100095.06;4166348;28;20369;-72
2022/09/21 01:45:53;;;;;;;26.23;13.67;;;;;;;8.53;100.00;100086.28;4166792;28;23345;-72
2022/09/21 01:48:22;;;;;;;23.17;13.23;;;;;;;8.61;100.00;100091.72;4170066;28;20614;-70
2022/09/21 01:50:55;;;;;;;23.27;13.83;;;;;;;8.56;100.00;100093.97;4172973;28;20237;-70
2022/09/21 01:53:30;;;;;;;25.00;13.73;;;;;;;8.52;100.00;100098.72;4170113;28;20768;-71
2022/09/21 01:55:59;;;;;;;26.27;13.87;;;;;;;8.58;100.00;100098.16;4181634;28;20251;-72
2022/09/21 01:58:45;;;;;;;30.13;15.77;;;;;;;8.56;100.00;100099.25;4167976;28;21923;-70
2022/09/21 02:01:18;;;;;;;26.43;14.27;;;;;;;8.55;100.00;100108.22;4157971;28;21096;-70
2022/09/21 02:03:52;;;;;;;30.63;16.03;;;;;;;8.58;100.00;100105.28;4163395;28;20323;-69
2022/09/21 02:06:18;;;;;;;26.27;15.23;;;;;;;8.57;100.00;100103.56;4170976;28;21402;-71
2022/09/21 02:08:45;;;;;;;27.80;14.47;;;;;;;8.66;100.00;100106.25;4168549;28;22083;-74
2022/09/21 02:11:12;;;;;;;23.90;13.90;;;;;;;8.58;100.00;100107.91;4170542;28;24745;-71
2022/09/21 02:13:45;;;;;;;26.67;14.67;;;;;;;8.61;100.00;100112.94;4159863;28;22023;-70
2022/09/21 02:16:35;;;;;;;28.30;13.67;;;;;;;8.58;100.00;100114.06;4159006;28;20264;-73
2022/09/21 02:19:08;;;;;;;24.40;14.10;;;;;;;8.66;100.00;100116.00;4167927;28;20279;-69
2022/09/21 02:21:56;;;;;;;25.53;13.60;;;;;;;8.69;100.00;100114.91;4172275;28;20239;-71
2022/09/21 02:24:44;;;;;;;27.33;13.70;;;;;;;8.61;100.00;100118.25;4184323;28;20231;-71
2022/09/21 02:27:32;;;;;;;27.63;13.03;;;;;;;8.67;100.00;100109.72;4158698;28;22897;-69
2022/09/21 02:30:13;;;;;;;26.10;13.43;;;;;;;8.77;100.00;100110.56;4172102;28;20275;-69
2022/09/21 02:32:49;;;;;;;22.70;13.37;;;;;;;8.69;100.00;100112.25;4172918;28;20329;-72
2022/09/21 02:35:29;;;;;;;23.53;12.43;;;;;;;8.69;100.00;100110.44;4172002;28;21723;-71
2022/09/21 02:38:07;;;;;;;28.20;14.07;;;;;;;8.56;100.00;100117.81;4180987;28;20229;-71
2022/09/21 02:40:39;;;;;;;26.20;14.10;;;;;;;8.58;100.00;100115.88;4173841;28;20236;-71
2022/09/21 02:43:13;;;;;;;27.33;14.87;;;;;;;8.55;100.00;100119.66;4179513;28;20453;-70
2022/09/21 02:45:49;;;;;;;30.07;15.60;;;;;;;8.56;100.00;100118.66;4169003;28;21445;-70
2022/09/21 02:48:17;;;;;;;30.07;14.80;;;;;;;8.56;100.00;100120.47;4164320;28;22359;-69
2022/09/21 02:50:47;;;;;;;35.33;15.67;;;;;;;8.61;100.00;100124.38;4179088;28;25405;-72
2022/09/21 02:53:18;;;;;;;34.33;15.50;;;;;;;8.60;100.00;100124.53;4176604;28;20639;-71
2022/09/21 02:55:45;;;;;;;33.73;16.17;;;;;;;8.57;100.00;100124.78;4178768;28;20606;-73
2022/09/21 02:58:13;;;;;;;35.17;17.23;;;;;;;8.58;100.00;100127.31;4170447;28;22990;-71
2022/09/21 03:00:40;;;;;;;29.37;15.37;;;;;;;8.57;100.00;100128.31;4169698;28;20281;-70
2022/09/21 03:03:21;;;;;;;27.97;15.23;;;;;;;8.61;100.00;100123.53;4182051;28;20245;-70
2022/09/21 03:05:49;;;;;;;33.30;16.27;;;;;;;8.61;100.00;100123.53;4185225;28;20273;-69
2022/09/21 03:08:16;;;;;;;32.83;15.77;;;;;;;8.58;100.00;100127.31;4185684;28;22134;-71
2022/09/21 03:10:42;;;;;;;31.90;15.60;;;;;;;8.55;100.00;100124.13;4184067;28;20255;-70
2022/09/21 03:13:09;;;;;;;28.40;14.90;;;;;;;8.61;100.00;100126.19;4177945;28;20279;-72
2022/09/21 03:15:37;;;;;;;32.63;15.63;;;;;;;8.61;100.00;100128.84;4176533;28;20234;-70
2022/09/21 03:18:05;;;;;;;29.90;14.47;;;;;;;8.62;100.00;100128.72;4180164;28;20236;-69
2022/09/21 03:20:32;;;;;;;31.67;15.07;;;;;;;8.69;100.00;100128.16;4170815;28;20243;-68
2022/09/21 03:22:59;;;;;;;29.67;14.23;;;;;;;8.63;100.00;100126.91;4174795;28;20229;-70
2022/09/21 03:25:27;;;;;;;33.57;14.80;;;;;;;8.61;100.00;100134.16;4170282;28;20248;-71
2022/09/21 03:27:53;;;;;;;27.70;15.60;;;;;;;8.62;100.00;100136.69;4187873;28;24212;-69
2022/09/21 03:30:21;;;;;;;26.33;14.90;;;;;;;8.65;100.00;100138.22;4185504;28;20292;-75
2022/09/21 03:32:49;;;;;;;25.87;14.47;;;;;;;8.64;100.00;100144.50;4186120;28;22352;-73
2022/09/21 03:35:16;;;;;;;27.70;14.53;;;;;;;8.70;100.00;100140.44;4185372;28;20257;-70
2022/09/21 03:37:43;;;;;;;23.07;13.90;;;;;;;8.68;100.00;100145.88;4180207;28;20233;-70
2022/09/21 03:40:11;;;;;;;25.80;14.53;;;;;;;8.66;100.00;100143.38;4187177;28;21589;-72
2022/09/21 03:42:39;;;;;;;25.67;13.70;;;;;;;8.70;100.00;100140.44;4185998;28;20250;-69
2022/09/21 03:45:06;;;;;;;28.10;14.37;;;;;;;8.69;100.00;100142.25;4188472;28;21616;-71
2022/09/21 03:47:33;;;;;;;26.90;14.23;;;;;;;8.73;100.00;100148.94;4184801;28;21248;-70
2022/09/21 03:49:59;;;;;;;24.57;13.13;;;;;;;8.79;100.00;100148.41;4181164;28;20228;-69
2022/09/21 03:52:26;;;;;;;26.93;13.53;;;;;;;8.74;100.00;100140.03;4188927;28;20249;-72
2022/09/21 03:54:53;;;;;;;23.00;14.10;;;;;;;8.82;100.00;100148.09;4188602;28;23250;-71
2022/09/21 03:57:20;;;;;;;20.20;12.77;;;;;;;8.83;100.00;100155.09;4179802;28;20316;-70
2022/09/21 03:59:47;;;;;;;23.50;12.83;;;;;;;8.74;100.00;100145.31;4178951;28;20246;-70
2022/09/21 04:02:15;;;;;;;23.33;12.93;;;;;;;8.90;100.00;100155.38;4186544;28;20923;-69
2022/09/21 04:04:41;;;;;;;23.40;13.10;;;;;;;8.84;100.00;100162.06;4183905;28;20286;-71
2022/09/21 04:07:08;;;;;;;24.97;13.73;;;;;;;8.84;100.00;100155.94;4188518;28;20633;-73
2022/09/21 04:09:34;;;;;;;22.97;13.37;;;;;;;8.87;100.00;100159.16;4185674;28;20418;-70
2022/09/21 04:12:01;;;;;;;26.43;12.63;;;;;;;8.84;100.00;100163.91;4179334;28;20248;-68
2022/09/21 04:14:27;;;;;;;20.40;13.40;;;;;;;8.86;100.00;100157.47;4195983;28;22882;-69
2022/09/21 04:16:54;;;;;;;20.17;12.50;;;;;;;8.85;100.00;100161.09;4183902;28;20237;-69
2022/09/21 04:19:21;;;;;;;24.80;13.73;;;;;;;8.89;100.00;100169.59;4179748;28;20232;-72
2022/09/21 04:21:50;;;;;;;21.33;12.83;;;;;;;8.95;100.00;100173.53;4192147;28;20241;-71
2022/09/21 04:24:18;;;;;;;19.50;12.87;;;;;;;8.95;100.00;100169.06;4190141;28;21937;-70
2022/09/21 04:26:45;;;;;;;27.40;12.57;;;;;;;9.00;100.00;100171.28;4186792;28;20397;-70
2022/09/21 04:29:15;;;;;;;20.93;12.10;;;;;;;8.99;100.00;100172.25;4179844;28;20313;-71
2022/09/21 04:31:41;;;;;;;20.27;12.90;;;;;;;8.93;100.00;100167.53;4184242;28;20233;-71
2022/09/21 04:34:11;;;;;;;20.63;12.87;;;;;;;8.95;100.00;100170.88;4177430;28;21375;-72
2022/09/21 04:36:37;;;;;;;24.30;12.90;;;;;;;8.97;100.00;100174.22;4185615;28;20241;-71
2022/09/21 04:39:05;;;;;;;23.83;13.10;;;;;;;8.99;100.00;100172.25;4187953;28;20403;-71
2022/09/21 04:41:31;;;;;;;23.07;12.43;;;;;;;8.98;100.00;100178.56;4187404;28;20239;-72
2022/09/21 04:43:58;;;;;;;23.53;13.23;;;;;;;8.94;100.00;100177.97;4175400;28;20684;-70
2022/09/21 04:46:25;;;;;;;25.30;13.87;;;;;;;9.06;100.00;100183.97;4184153;28;22190;-71
2022/09/21 04:48:52;;;;;;;27.40;13.30;;;;;;;9.12;100.00;100191.38;4183904;28;22759;-73
2022/09/21 04:51:18;;;;;;;35.63;12.30;;;;;;;9.10;100.00;100188.03;4190050;28;21105;-68
2022/09/21 04:53:44;;;;;;;26.07;13.97;;;;;;;9.11;100.00;100192.38;4186629;28;20239;-72
2022/09/21 04:56:13;;;;;;;24.70;14.27;;;;;;;9.10;100.00;100193.34;4187062;28;20230;-73
2022/09/21 04:58:39;;;;;;;26.73;13.23;;;;;;;9.12;100.00;100194.03;4185473;28;21166;-72
2022/09/21 05:01:06;;;;;;;22.40;13.70;;;;;;;9.10;100.00;100198.66;4177947;28;20620;-72
2022/09/21 05:03:33;;;;;;;22.80;12.77;;;;;;;9.11;100.00;100194.16;4175024;28;21908;-70
2022/09/21 05:06:00;;;;;;;21.70;12.90;;;;;;;9.14;100.00;100199.22;4173979;28;20429;-69
2022/09/21 05:11:17;;;;;;;20.63;12.77;;;;;;;9.18;100.00;100206.75;4212927;28;20230;-71
2022/09/21 05:13:44;;;;;;;20.83;12.90;;;;;;;9.19;100.00;100203.13;4184681;28;22176;-72
2022/09/21 05:16:10;;;;;;;21.23;12.43;;;;;;;9.18;100.00;100196.13;4214473;28;20308;-70
2022/09/21 05:18:37;;;;;;;20.97;12.80;;;;;;;9.18;100.00;100200.63;4184451;28;20342;-72
2022/09/21 05:21:05;;;;;;;25.00;12.13;;;;;;;9.26;100.00;100204.22;4203495;28;20349;-71
2022/09/21 05:23:32;;;;;;;18.87;12.37;;;;;;;9.29;100.00;100209.25;4232461;28;20247;-73
2022/09/21 05:25:59;;;;;;;17.87;11.73;;;;;;;9.38;100.00;100206.72;4191756;28;20249;-70
2022/09/21 05:28:26;;;;;;;21.23;11.73;;;;;;;9.39;100.00;100209.25;4200717;28;20252;-69
2022/09/21 05:31:18;;;;;;;21.33;11.50;;;;;;;9.48;100.00;100218.16;4198033;28;21261;-71
2022/09/21 05:33:51;;;;;;;17.13;12.33;;;;;;;9.43;100.00;100217.75;4197188;28;20526;-69
2022/09/21 05:36:38;;;;;;;23.70;12.63;;;;;;;9.46;100.00;100220.97;4210925;28;21094;-70
2022/09/21 05:39:06;;;;;;;18.77;11.80;;;;;;;9.49;100.00;100225.97;4195668;28;23496;-71
2022/09/21 05:41:33;;;;;;;16.80;10.80;;;;;;;9.53;100.00;100221.25;4186683;28;20237;-70
2022/09/21 05:44:00;;;;;;;20.57;11.90;;;;;;;9.42;100.00;100229.38;4210383;28;20414;-72
2022/09/21 05:46:37;;;;;;;17.83;11.73;;;;;;;9.48;100.00;100234.09;4186306;28;20345;-72
2022/09/21 05:49:14;;;;;;;19.83;11.50;;;;;;;9.55;100.00;100232.53;4180251;28;20241;-70
2022/09/21 05:51:58;;;;;;;21.30;11.83;;;;;;;9.57;100.00;100232.41;4195740;28;20237;-71
2022/09/21 05:54:43;;;;;;;19.07;10.90;;;;;;;9.62;100.00;100228.34;4195775;28;20453;-73
2022/09/21 05:57:15;;;;;;;19.10;10.67;;;;;;;9.64;100.00;100236.97;4186536;28;21176;-70
2022/09/21 05:59:46;;;;;;;17.60;10.93;;;;;;;9.71;100.00;100238.09;4197590;28;20758;-66
2022/09/21 06:02:39;;;;;;;16.00;10.93;;;;;;;9.87;100.00;100242.78;4196822;28;20355;-66
2022/09/21 06:05:13;;;;;;;19.17;10.70;;;;;;;9.87;100.00;100242.78;4184553;28;20232;-68
2022/09/21 06:07:42;;;;;;;14.40;9.33;;;;;;;9.96;100.00;100246.41;4194963;28;21823;-73
2022/09/21 06:10:11;;;;;;;15.03;9.10;;;;;;;10.03;100.00;100255.47;4192574;28;23289;-69
2022/09/21 06:12:37;;;;;;;14.40;9.00;;;;;;;10.00;100.00;100253.13;4185288;28;23618;-70
2022/09/21 06:15:06;;;;;;;14.70;8.97;;;;;;;10.00;100.00;100246.97;4193774;28;20519;-69
2022/09/21 06:17:32;;;;;;;15.93;9.10;;;;;;;9.96;100.00;100243.75;4193046;28;20247;-69
2022/09/21 06:19:59;;;;;;;13.20;8.77;;;;;;;10.04;100.00;100253.66;4190432;28;20327;-68
2022/09/21 06:22:25;;;;;;;14.80;9.27;;;;;;;10.03;100.00;100260.78;4184858;28;20313;-71
2022/09/21 06:24:52;;;;;;;13.23;8.77;;;;;;;10.13;100.00;100255.44;4189786;28;20239;-73
2022/09/21 06:27:18;;;;;;;12.60;8.80;;;;;;;10.23;100.00;100258.03;4187338;28;20233;-68
2022/09/21 06:29:45;;;;;;;13.40;7.87;;;;;;;10.24;100.00;100263.22;4190751;28;20652;-70
2022/09/21 06:32:11;;;;;;;11.97;8.23;;;;;;;10.30;100.00;100261.81;4193245;28;20233;-72
2022/09/21 06:34:38;;;;;;;15.93;8.80;;;;;;;10.29;100.00;100268.97;4187166;28;20503;-72
2022/09/21 06:37:04;;;;;;;12.60;7.20;;;;;;;10.18;100.00;100260.31;4190332;28;20313;-69
2022/09/21 06:39:31;;;;;;;16.00;7.20;;;;;;;10.31;100.00;100260.84;4196105;28;20232;-67
2022/09/21 06:41:58;;;;;;;13.03;7.07;;;;;;;10.38;100.00;100264.59;4175873;28;20618;-68
2022/09/21 06:44:25;;;;;;;11.07;6.50;;;;;;;10.53;100.00;100262.25;4185638;28;20233;-69
2022/09/21 06:46:51;;;;;;;10.93;6.17;;;;;;;10.64;100.00;100270.03;4193080;28;20291;-69
2022/09/21 06:49:18;;;;;;;11.50;6.33;;;;;;;10.78;100.00;100271.34;4216399;28;20229;-72
2022/09/21 06:51:46;;;;;;;8.63;5.83;;;;;;;11.05;100.00;100278.47;4197157;28;23223;-76
2022/09/21 06:54:13;;;;;;;9.50;5.20;;;;;;;11.31;100.00;100273.19;4200075;28;20232;-71
2022/09/21 06:56:42;;;;;;;7.37;4.33;;;;;;;11.50;100.00;100271.34;4224124;28;20240;-73
2022/09/21 06:59:08;;;;;;;10.23;4.43;;;;;;;11.75;100.00;100281.19;4213682;28;20533;-77
2022/09/21 07:01:35;;;;;;;5.67;3.90;;;;;;;11.61;100.00;100277.25;4211903;28;20260;-75
2022/09/21 07:04:03;;;;;;;7.10;4.23;;;;;;;11.68;100.00;100280.13;4204361;28;21230;-73
2022/09/21 07:06:29;;;;;;;7.03;3.13;;;;;;;11.76;98.58;100293.53;4196423;28;21510;-73
2022/09/21 07:08:57;;;;;;;6.50;3.33;;;;;;;11.80;97.93;100294.06;4202368;28;20238;-72
2022/09/21 07:11:43;;;;;;;7.77;3.43;;;;;;;11.72;98.05;100286.81;4232067;28;20903;-73
2022/09/21 07:14:10;;;;;;;9.40;3.23;;;;;;;11.79;98.52;100292.38;4206115;28;21318;-72
2022/09/21 07:16:37;;;;;;;7.87;3.57;;;;;;;11.92;97.83;100284.00;4234549;28;20736;-77
2022/09/21 07:19:04;;;;;;;6.03;3.20;;;;;;;12.89;96.24;100298.72;4213042;28;20318;-75
2022/09/21 07:21:36;;;;;;;5.60;3.60;;;;;;;13.35;90.33;100301.84;4212601;28;20321;-76
2022/09/21 07:24:03;;;;;;;9.00;3.23;;;;;;;13.25;89.11;100307.31;4199910;28;20268;-74
2022/09/21 07:26:37;;;;;;;3.33;2.10;;;;;;;13.32;85.34;100304.00;4186611;28;20233;-73
2022/09/21 07:29:03;;;;;;;3.67;2.13;;;;;;;12.92;86.82;100301.06;4209798;28;21823;-72
2022/09/21 07:31:30;;;;;;;3.57;2.27;;;;;;;12.78;88.84;100301.69;4184076;28;20308;-72
2022/09/21 07:33:58;;;;;;;6.70;2.50;;;;;;;14.14;85.46;100302.94;4196951;28;20292;-71
2022/09/21 07:36:24;;;;;;;2.37;1.83;;;;;;;17.78;65.92;100323.22;4223087;28;20258;-72
2022/09/21 07:38:52;;;;;;;3.07;1.70;;;;;;;20.56;51.61;100329.59;4241075;28;20237;-71
2022/09/21 07:41:21;;;;;;;2.87;1.50;;;;;;;22.00;43.74;100348.09;4239819;28;20240;-73
2022/09/21 07:43:47;;;;;;;4.00;1.33;;;;;;;21.58;44.72;100347.81;4250184;28;20247;-70
2022/09/21 07:46:14;;;;;;;1.97;1.13;;;;;;;21.00;45.48;100349.59;4244701;28;25679;-72
2022/09/21 07:48:41;;;;;;;3.10;1.60;;;;;;;21.12;45.46;100343.47;4226371;28;20236;-72
2022/09/21 07:51:13;;;;;;;5.03;1.63;;;;;;;21.55;45.05;100340.94;4262290;28;21648;-72
2022/09/21 07:53:43;;;;;;;1.87;1.57;;;;;;;18.66;54.49;100328.13;4238723;28;20261;-72
2022/09/21 07:56:16;;;;;;;2.30;1.33;;;;;;;17.65;57.49;100321.25;4227992;28;20295;-69
2022/09/21 08:01:34;;;;;;;5.03;1.50;;;;;;;20.43;47.34;100343.09;4286358;28;20244;-70
2022/09/21 08:04:01;;;;;;;1.77;1.27;;;;;;;19.45;47.73;100345.63;4198090;28;22773;-68
2022/09/21 08:06:31;;;;;;;3.00;1.40;;;;;;;18.65;50.40;100331.88;4215209;28;20473;-72
2022/09/21 08:08:59;;;;;;;1.73;1.20;;;;;;;19.00;50.51;100340.75;4238855;28;25645;-70
2022/09/21 08:11:27;;;;;;;3.63;1.47;;;;;;;20.02;48.07;100349.63;4203934;28;20241;-69
2022/09/21 08:13:58;;;;;;;2.10;1.33;;;;;;;20.62;45.72;100347.66;4240040;28;20237;-70
2022/09/21 08:16:25;;;;;;;2.00;1.20;;;;;;;20.48;45.29;100353.28;4187166;28;20505;-69
2022/09/21 08:18:52;;;;;;;5.33;1.33;;;;;;;18.50;51.94;100343.63;4188042;28;20238;-71
2022/09/21 08:21:19;;;;;;;2.80;1.63;;;;;;;17.08;57.10;100340.97;4203850;28;20245;-72
2022/09/21 08:23:48;;;;;;;2.63;1.20;;;;;;;16.05;61.65;100334.63;4212382;28;20284;-71
2022/09/21 08:26:19;;;;;;;2.43;1.13;;;;;;;15.08;65.57;100321.78;4194873;28;20329;-73
2022/09/21 08:28:48;;;;;;;2.70;1.10;;;;;;;14.27;69.58;100313.09;4191320;28;22714;-71
2022/09/21 08:31:17;;;;;;;3.90;1.47;;;;;;;14.00;75.51;100306.31;4187762;28;20322;-53
2022/09/21 08:33:45;;;;;;;3.60;1.40;;;;;;;13.89;74.07;100315.53;4198123;28;20367;-68
2022/09/21 08:36:11;;;;;;;2.37;1.57;;;;;;;13.58;76.80;100314.53;4211957;28;20230;-68
2022/09/21 08:38:39;;;;;;;3.27;1.43;;;;;;;13.34;80.08;100310.84;4189535;28;20341;-67
2022/09/21 08:41:21;;;;;;;6.53;1.57;;;;;;;13.10;79.47;100311.63;4208028;28;20237;-67
2022/09/21 08:43:51;;;;;;;1.97;1.23;;;;;;;12.91;79.89;100315.44;4190827;28;22082;-67
2022/09/21 08:46:21;;;;;;;2.60;1.27;;;;;;;12.75;80.57;100318.06;4192354;28;23102;-68
2022/09/21 08:48:59;;;;;;;1.30;1.10;;;;;;;12.69;81.14;100316.88;4180394;28;20241;-67
2022/09/21 08:51:29;;;;;;;2.83;1.40;;;;;;;13.00;81.11;100319.81;4193844;28;22879;-66
2022/09/21 08:54:01;;;;;;;3.33;1.70;;;;;;;12.83;80.75;100324.28;4187344;28;20233;-70
2022/09/21 08:56:28;;;;;;;3.10;1.10;;;;;;;12.77;80.57;100316.06;4207281;28;20233;-66
2022/09/21 08:59:14;;;;;;;4.10;1.00;;;;;;;13.21;78.84;100326.53;4207085;28;21488;-66
2022/09/21 09:01:58;;;;;;;3.37;1.93;;;;;;;13.70;76.24;100329.25;4216968;28;22061;-68
2022/09/21 09:04:43;;;;;;;1.87;1.03;;;;;;;13.54;75.79;100322.06;4206874;28;20228;-67
2022/09/21 09:07:36;;;;;;;2.70;1.20;;;;;;;13.32;77.88;100323.53;4199416;28;20233;-67
2022/09/21 09:10:22;;;;;;;2.03;1.40;;;;;;;13.28;78.89;100324.91;4191613;28;21104;-67
2022/09/21 09:13:09;;;;;;;2.90;1.70;;;;;;;13.40;78.71;100326.25;4215335;28;20423;-68
2022/09/21 09:15:47;;;;;;;1.27;1.10;;;;;;;13.44;78.64;100321.41;4199697;28;21191;-69
2022/09/21 09:18:42;;;;;;;2.23;1.20;;;;;;;13.39;78.88;100326.38;4185964;28;21407;-68
2022/09/21 09:21:38;;;;;;;1.37;1.13;;;;;;;13.25;80.99;100325.16;4207056;28;21378;-68
2022/09/21 09:24:12;;;;;;;1.43;1.00;;;;;;;13.26;80.69;100321.50;4196719;28;20422;-68
2022/09/21 09:26:53;;;;;;;2.13;1.20;;;;;;;13.16;79.79;100326.16;4184963;28;23743;-67
2022/09/21 09:29:50;;;;;;;3.07;1.80;;;;;;;12.87;81.38;100322.91;4207659;28;20240;-67
2022/09/21 09:32:17;;;;;;;3.03;1.67;;;;;;;12.83;82.27;100331.41;4201356;28;20238;-70
2022/09/21 09:34:52;;;;;;;2.80;1.47;;;;;;;13.01;82.66;100331.31;4177334;28;23704;-67
2022/09/21 09:37:23;;;;;;;4.27;1.63;;;;;;;13.26;82.73;100327.69;4170335;28;20229;-67
2022/09/21 09:39:54;;;;;;;3.23;1.30;;;;;;;13.45;78.39;100337.25;4174239;28;20680;-68
2022/09/21 09:42:27;;;;;;;3.10;1.10;;;;;;;13.70;76.52;100335.44;4184503;28;20285;-70
2022/09/21 09:45:24;;;;;;;2.97;0.97;;;;;;;14.04;74.18;100331.69;4183964;28;20802;-68
2022/09/21 09:48:13;;;;;;;4.00;1.10;;;;;;;13.90;76.34;100333.22;4182340;28;20230;-70
2022/09/21 09:50:41;;;;;;;1.13;0.83;;;;;;;13.69;73.27;100332.91;4177364;28;20230;-69
2022/09/21 09:53:12;;;;;;;3.57;1.00;;;;;;;13.57;75.82;100327.06;4214404;28;20233;-67
2022/09/21 09:55:42;;;;;;;1.80;0.97;;;;;;;13.57;73.04;100332.41;4171692;28;21498;-69
2022/09/21 09:58:24;;;;;;;2.40;0.80;;;;;;;13.54;74.67;100323.91;4188135;28;20537;-70
2022/09/21 10:00:52;;;;;;;2.17;1.03;;;;;;;13.55;75.51;100329.06;4178107;28;22983;-71
2022/09/21 10:03:24;;;;;;;3.73;1.07;;;;;;;13.78;74.69;100326.56;4168261;28;20269;-68
2022/09/21 10:05:51;;;;;;;4.20;1.00;;;;;;;14.21;74.87;100324.50;4181904;28;20622;-69
2022/09/21 10:08:28;;;;;;;2.33;1.00;;;;;;;14.73;71.54;100329.34;4183098;28;21215;-67
2022/09/21 10:10:55;;;;;;;2.97;1.03;;;;;;;14.78;69.51;100328.81;4175358;28;20249;-69
2022/09/21 10:13:24;;;;;;;3.37;0.80;;;;;;;15.17;69.56;100325.25;4189646;28;20238;-69
2022/09/21 10:15:53;;;;;;;2.80;1.20;;;;;;;15.45;65.92;100330.91;4172115;28;20308;-67
2022/09/21 10:18:48;;;;;;;2.17;1.27;;;;;;;15.65;65.91;100328.56;4175590;28;20287;-66
2022/09/21 10:21:21;;;;;;;4.00;1.00;;;;;;;15.63;65.61;100327.91;4185059;28;25524;-67
2022/09/21 10:24:17;;;;;;;4.93;1.00;;;;;;;15.78;66.17;100328.84;4167284;28;20562;-67
2022/09/21 10:26:53;;;;;;;2.47;0.77;;;;;;;15.73;65.69;100325.00;4171543;28;21189;-68
2022/09/21 10:29:24;;;;;;;3.03;0.70;;;;;;;15.55;64.03;100322.63;4190808;28;22248;-67
2022/09/21 10:32:06;;;;;;;2.47;0.80;;;;;;;15.37;63.22;100333.66;4186179;28;23035;-67
2022/09/21 10:34:40;;;;;;;2.07;1.17;;;;;;;15.46;63.41;100329.06;4160989;28;20237;-67
2022/09/21 10:37:36;;;;;;;1.30;0.80;;;;;;;15.06;66.09;100326.50;4154505;28;20333;-69
2022/09/21 10:40:07;;;;;;;1.40;0.83;;;;;;;14.71;68.14;100330.53;4169039;28;21578;-68
2022/09/21 10:42:36;;;;;;;8.63;1.27;;;;;;;14.46;69.85;100327.09;4178941;28;20668;-69
2022/09/21 10:45:13;;;;;;;2.30;1.10;;;;;;;14.63;70.52;100328.72;4168785;28;20243;-68
2022/09/21 10:47:43;;;;;;;2.20;1.30;;;;;;;14.87;68.35;100319.75;4160621;28;20320;-69
2022/09/21 10:50:24;;;;;;;2.60;0.80;;;;;;;14.99;66.99;100323.69;4169262;28;20324;-66
2022/09/21 10:52:56;;;;;;;2.83;0.70;;;;;;;14.99;65.37;100322.84;4174419;28;20241;-68
2022/09/21 10:55:24;;;;;;;1.23;0.70;;;;;;;14.89;63.46;100324.91;4202992;28;20481;-66
2022/09/21 10:57:51;;;;;;;1.33;0.80;;;;;;;14.98;63.28;100329.22;4198291;28;20246;-70
2022/09/21 11:00:20;;;;;;;1.50;0.80;;;;;;;15.13;62.26;100324.78;4203109;28;20398;-69
2022/09/21 11:02:47;;;;;;;1.90;0.90;;;;;;;15.14;62.83;100331.78;4192716;28;20687;-67
2022/09/21 11:05:30;;;;;;;1.80;0.80;;;;;;;14.93;62.44;100326.22;4218053;28;20275;-71
2022/09/21 11:08:04;;;;;;;2.33;0.70;;;;;;;14.96;62.39;100320.50;4196865;28;20263;-68
2022/09/21 11:10:52;;;;;;;1.20;0.60;;;;;;;15.22;61.83;100325.56;4194381;28;21120;-69
2022/09/21 11:13:27;;;;;;;3.13;0.60;;;;;;;15.35;59.15;100319.59;4223373;28;22917;-70
2022/09/21 11:16:26;;;;;;;1.47;0.60;;;;;;;15.84;57.22;100324.59;4194258;28;20419;-70
2022/09/21 11:19:17;;;;;;;1.33;0.80;;;;;;;16.07;56.78;100321.84;4176365;28;20395;-67
2022/09/21 11:22:09;;;;;;;6.83;0.80;;;;;;;15.72;58.49;100324.19;4191386;28;20649;-68
2022/09/21 11:25:30;;;;;;;0.97;0.60;;;;;;;15.49;59.63;100329.53;4200580;28;20927;-69
2022/09/21 11:28:13;;;;;;;2.20;0.60;;;;;;;14.95;60.44;100318.84;4179518;28;20315;-68
2022/09/21 11:31:08;;;;;;;1.97;0.80;;;;;;;14.89;61.37;100314.19;4172984;28;21302;-68
2022/09/21 11:33:54;;;;;;;3.07;0.50;;;;;;;15.25;60.13;100321.69;4198438;28;20243;-70
2022/09/21 11:36:25;;;;;;;3.90;0.50;;;;;;;15.49;59.17;100318.81;4220211;28;22364;-69
2022/09/21 11:38:59;;;;;;;0.90;0.60;;;;;;;15.55;58.42;100323.47;4167760;28;22303;-69
2022/09/21 11:41:34;;;;;;;1.70;0.53;;;;;;;15.42;57.63;100312.50;4207758;28;20237;-70
2022/09/21 11:44:22;;;;;;;2.07;0.60;;;;;;;15.38;59.76;100313.88;4177339;28;20424;-72
2022/09/21 11:46:57;;;;;;;1.00;0.70;;;;;;;15.45;59.19;100314.81;4193261;28;20237;-73